createdAt,value
2017-09-21T00:00:53.954Z,4.63
2017-09-21T00:03:23.366Z,3.80
2017-09-21T00:05:52.498Z,6.40
2017-09-21T00:08:21.843Z,4.20
2017-09-21T00:10:51.254Z,6.77
2017-09-21T00:13:20.418Z,4.60
2017-09-21T00:15:49.756Z,4.10
2017-09-21T00:18:19.254Z,4.43
2017-09-21T00:20:48.393Z,2.77
2017-09-21T00:23:18.155Z,2.43
2017-09-21T00:25:48.116Z,2.30
2017-09-21T00:28:17.304Z,5.10
2017-09-21T00:30:47.504Z,3.23
2017-09-21T00:33:17.649Z,3.07
2017-09-21T00:35:47.422Z,2.30
2017-09-21T00:38:16.700Z,2.97
2017-09-21T00:40:45.952Z,3.17
2017-09-21T00:43:15.388Z,3.00
2017-09-21T00:45:45.100Z,2.07
2017-09-21T00:48:14.577Z,3.50
2017-09-21T00:50:44.225Z,6.13
2017-09-21T00:53:13.373Z,3.20
2017-09-21T00:55:43.168Z,3.10
2017-09-21T00:58:12.599Z,3.87
2017-09-21T01:00:43.983Z,2.93
2017-09-21T01:03:13.345Z,5.30
2017-09-21T01:05:43.747Z,3.17
2017-09-21T01:08:12.928Z,4.57
2017-09-21T01:10:42.784Z,2.53
2017-09-21T01:13:12.106Z,2.90
2017-09-21T01:15:41.497Z,3.30
2017-09-21T01:18:11.662Z,3.93
2017-09-21T01:20:40.826Z,3.40
2017-09-21T01:23:11.404Z,4.73
2017-09-21T01:25:42.315Z,6.83
2017-09-21T01:28:11.770Z,6.33
2017-09-21T01:30:41.430Z,4.47
2017-09-21T01:33:10.971Z,5.70
2017-09-21T01:35:40.545Z,5.43
2017-09-21T01:38:10.339Z,5.90
2017-09-21T01:40:39.534Z,7.47
2017-09-21T01:43:08.842Z,7.57
2017-09-21T01:45:38.560Z,7.67
2017-09-21T01:48:08.278Z,7.70
2017-09-21T01:50:37.713Z,7.70
2017-09-21T01:53:07.167Z,5.80
2017-09-21T01:55:36.662Z,10.40
2017-09-21T01:58:07.109Z,5.50
2017-09-21T02:00:36.735Z,6.93
2017-09-21T02:03:05.921Z,9.83
2017-09-21T02:05:35.220Z,10.13
2017-09-21T02:08:04.524Z,9.07
2017-09-21T02:10:33.698Z,8.23
2017-09-21T02:13:03.077Z,9.60
2017-09-21T02:15:32.745Z,9.83
2017-09-21T02:18:03.067Z,6.00
2017-09-21T02:20:32.691Z,6.37
2017-09-21T02:23:01.877Z,6.03
2017-09-21T02:25:31.386Z,6.23
2017-09-21T02:28:01.895Z,4.93
2017-09-21T02:30:31.227Z,7.40
2017-09-21T02:33:01.587Z,9.93
2017-09-21T02:35:31.255Z,15.63
2017-09-21T02:38:00.667Z,13.23
2017-09-21T02:40:30.739Z,7.70
2017-09-21T02:43:00.477Z,6.87
2017-09-21T02:45:30.692Z,6.90
2017-09-21T02:48:00.864Z,6.53
2017-09-21T02:50:31.147Z,10.13
2017-09-21T02:53:00.260Z,10.30
2017-09-21T02:55:30.025Z,11.83
2017-09-21T02:57:59.820Z,15.30
2017-09-21T03:00:29.692Z,15.10
2017-09-21T03:02:58.997Z,12.70
2017-09-21T03:05:28.394Z,9.97
2017-09-21T03:08:00.516Z,9.30
2017-09-21T03:10:30.000Z,13.80
2017-09-21T03:12:59.261Z,9.30
2017-09-21T03:15:28.635Z,8.70
2017-09-21T03:17:59.168Z,8.67
2017-09-21T03:20:28.557Z,11.93
2017-09-21T03:22:57.946Z,10.53
2017-09-21T03:25:27.508Z,16.87
2017-09-21T03:27:58.347Z,16.47
2017-09-21T03:30:29.264Z,17.13
2017-09-21T03:33:07.377Z,16.13
2017-09-21T03:35:36.730Z,35.07
2017-09-21T03:38:07.072Z,17.73
2017-09-21T03:40:37.408Z,13.53
2017-09-21T03:43:08.698Z,27.97
2017-09-21T03:45:38.820Z,39.80
2017-09-21T03:48:09.200Z,24.10
2017-09-21T03:50:38.782Z,25.80
2017-09-21T03:53:07.854Z,20.70
2017-09-21T03:55:37.374Z,28.77
2017-09-21T03:58:07.043Z,21.07
2017-09-21T04:00:36.602Z,13.40
2017-09-21T04:03:06.133Z,12.30
2017-09-21T04:05:35.638Z,12.03
2017-09-21T04:08:05.006Z,11.83
2017-09-21T04:10:35.056Z,13.43
2017-09-21T04:13:04.753Z,20.33
2017-09-21T04:15:34.008Z,16.30
2017-09-21T04:18:03.959Z,17.67
2017-09-21T04:20:34.313Z,15.67
2017-09-21T04:23:04.303Z,12.20
2017-09-21T04:25:33.794Z,13.10
2017-09-21T04:28:03.299Z,14.17
2017-09-21T04:30:33.701Z,13.00
2017-09-21T04:33:02.861Z,12.73
2017-09-21T04:35:31.593Z,13.10
2017-09-21T04:38:01.017Z,12.57
2017-09-21T04:40:30.684Z,16.40
2017-09-21T04:43:00.036Z,16.87
2017-09-21T04:45:30.606Z,15.37
2017-09-21T04:47:59.736Z,29.43
2017-09-21T04:50:29.132Z,22.47
2017-09-21T04:52:58.590Z,22.37
2017-09-21T04:55:27.353Z,31.80
2017-09-21T04:57:56.427Z,25.27
2017-09-21T05:00:25.907Z,23.30
2017-09-21T05:02:55.482Z,38.53
2017-09-21T05:05:25.964Z,25.23
2017-09-21T05:07:55.123Z,27.00
2017-09-21T05:10:24.406Z,20.90
2017-09-21T05:12:54.255Z,23.63
2017-09-21T05:15:23.597Z,28.57
2017-09-21T05:17:52.791Z,35.23
2017-09-21T05:20:22.222Z,32.93
2017-09-21T05:22:51.559Z,27.90
2017-09-21T05:25:21.257Z,30.60
2017-09-21T05:27:51.120Z,26.83
2017-09-21T05:30:20.918Z,27.23
2017-09-21T05:32:51.193Z,35.43
2017-09-21T05:35:20.608Z,31.33
2017-09-21T05:37:50.505Z,33.13
2017-09-21T05:40:19.656Z,28.70
2017-09-21T05:42:48.923Z,29.50
2017-09-21T05:45:18.350Z,41.03
2017-09-21T05:47:47.607Z,33.10
2017-09-21T05:50:16.708Z,31.73
2017-09-21T05:52:45.873Z,54.60
2017-09-21T05:55:15.204Z,56.50
2017-09-21T05:57:44.662Z,30.10
2017-09-21T06:00:14.121Z,28.27
2017-09-21T06:02:43.622Z,36.50
2017-09-21T06:05:12.770Z,38.73
2017-09-21T06:07:42.184Z,31.43
2017-09-21T06:10:11.283Z,59.23
2017-09-21T06:12:40.499Z,41.50
2017-09-21T06:15:09.631Z,39.90
2017-09-21T06:17:39.225Z,28.60
2017-09-21T06:20:08.826Z,46.40
2017-09-21T06:22:38.229Z,28.27
2017-09-21T06:25:07.733Z,28.40
2017-09-21T06:27:44.527Z,24.47
2017-09-21T06:30:13.958Z,32.73
2017-09-21T06:32:43.314Z,29.40
2017-09-21T06:35:14.050Z,58.83
2017-09-21T06:37:43.439Z,25.47
2017-09-21T06:40:12.860Z,41.77
2017-09-21T06:42:42.299Z,45.10
2017-09-21T06:45:11.731Z,43.03
2017-09-21T06:47:41.387Z,23.90
2017-09-21T06:50:10.561Z,51.10
2017-09-21T06:52:39.997Z,28.30
2017-09-21T06:55:09.424Z,27.93
2017-09-21T06:57:39.846Z,23.30
2017-09-21T07:00:09.164Z,31.47
2017-09-21T07:02:38.352Z,24.33
2017-09-21T07:05:07.641Z,25.67
2017-09-21T07:07:37.020Z,24.60
2017-09-21T07:10:06.241Z,42.13
2017-09-21T07:12:35.737Z,26.70
2017-09-21T07:15:05.119Z,40.10
2017-09-21T07:17:34.652Z,59.67
2017-09-21T07:20:04.050Z,45.80
2017-09-21T07:22:34.638Z,62.97
2017-09-21T07:25:04.814Z,37.03
2017-09-21T07:27:36.800Z,51.90
2017-09-21T07:30:06.732Z,66.50
2017-09-21T07:32:35.954Z,41.80
2017-09-21T07:35:05.319Z,45.27
2017-09-21T07:37:35.519Z,45.37
2017-09-21T07:40:05.119Z,52.47
2017-09-21T07:42:34.755Z,56.30
2017-09-21T07:45:04.186Z,84.50
2017-09-21T07:47:33.565Z,59.90
2017-09-21T07:50:03.185Z,68.93
2017-09-21T07:52:33.056Z,73.33
2017-09-21T07:55:02.916Z,76.50
2017-09-21T07:57:32.389Z,56.80
2017-09-21T08:00:01.765Z,52.77
2017-09-21T08:02:31.066Z,51.03
2017-09-21T08:05:00.793Z,61.53
2017-09-21T08:07:30.859Z,90.33
2017-09-21T08:10:00.113Z,53.63
2017-09-21T08:12:29.745Z,55.53
2017-09-21T08:14:59.869Z,44.10
2017-09-21T08:17:29.322Z,51.23
2017-09-21T08:19:58.791Z,49.43
2017-09-21T08:22:28.394Z,72.53
2017-09-21T08:24:57.837Z,62.03
2017-09-21T08:27:27.219Z,91.80
2017-09-21T08:29:56.486Z,72.77
2017-09-21T08:32:25.967Z,56.27
2017-09-21T08:34:55.435Z,69.60
2017-09-21T08:37:25.108Z,60.90
2017-09-21T08:39:55.435Z,57.80
2017-09-21T08:42:25.329Z,37.67
2017-09-21T08:44:54.618Z,41.13
2017-09-21T08:47:23.806Z,38.73
2017-09-21T08:49:53.111Z,45.87
2017-09-21T08:52:22.353Z,84.10
2017-09-21T08:54:51.621Z,73.23
2017-09-21T08:57:20.905Z,46.53
2017-09-21T08:59:50.685Z,56.63
2017-09-21T09:02:19.943Z,40.97
2017-09-21T09:04:49.078Z,74.57
2017-09-21T09:07:18.409Z,72.33
2017-09-21T09:09:47.736Z,60.43
2017-09-21T09:12:16.957Z,41.87
2017-09-21T09:14:47.056Z,65.67
2017-09-21T09:17:16.455Z,67.53
2017-09-21T09:19:46.052Z,59.03
2017-09-21T09:22:15.338Z,86.90
2017-09-21T09:24:44.859Z,61.77
2017-09-21T09:27:14.669Z,37.73
2017-09-21T09:29:45.192Z,42.50
2017-09-21T09:32:14.525Z,32.53
2017-09-21T09:34:43.557Z,32.93
2017-09-21T09:37:12.779Z,46.83
2017-09-21T09:39:42.109Z,30.00
2017-09-21T09:42:12.516Z,53.00
2017-09-21T09:44:41.919Z,56.63
2017-09-21T09:47:11.229Z,44.93
2017-09-21T09:49:40.593Z,31.50
2017-09-21T09:52:09.725Z,35.20
2017-09-21T09:54:39.666Z,29.27
2017-09-21T09:57:08.840Z,40.00
2017-09-21T09:59:38.026Z,44.90
2017-09-21T10:02:07.463Z,39.00
2017-09-21T10:04:36.507Z,69.30
2017-09-21T10:07:05.871Z,51.33
2017-09-21T10:09:36.256Z,58.10
2017-09-21T10:12:05.341Z,48.27
2017-09-21T10:14:34.905Z,56.63
2017-09-21T10:17:04.243Z,60.50
2017-09-21T10:19:34.826Z,35.23
2017-09-21T10:22:05.147Z,65.03
2017-09-21T10:24:34.495Z,52.20
2017-09-21T10:27:04.492Z,47.23
2017-09-21T10:29:33.642Z,35.10
2017-09-21T10:32:03.279Z,30.57
2017-09-21T10:34:33.205Z,35.53
2017-09-21T10:37:03.528Z,33.60
2017-09-21T10:39:32.884Z,41.80
2017-09-21T10:42:03.051Z,31.30
2017-09-21T10:44:32.883Z,36.27
2017-09-21T10:47:02.112Z,44.43
2017-09-21T10:49:31.537Z,27.30
2017-09-21T10:52:00.823Z,26.13
2017-09-21T10:54:30.070Z,51.30
2017-09-21T10:57:00.193Z,51.13
2017-09-21T10:59:29.535Z,19.10
2017-09-21T11:01:58.850Z,65.23
2017-09-21T11:04:28.351Z,23.97
2017-09-21T11:06:57.563Z,23.53
2017-09-21T11:09:27.396Z,35.20
2017-09-21T11:11:57.468Z,52.50
2017-09-21T11:14:26.740Z,26.30
2017-09-21T11:16:55.957Z,21.83
2017-09-21T11:19:25.112Z,29.40
2017-09-21T11:21:54.464Z,43.53
2017-09-21T11:24:23.719Z,59.57
2017-09-21T11:26:53.232Z,42.33
2017-09-21T11:29:22.563Z,22.50
2017-09-21T11:31:51.716Z,43.33
2017-09-21T11:34:22.030Z,27.37
2017-09-21T11:36:51.203Z,35.50
2017-09-21T11:39:20.350Z,27.40
2017-09-21T11:41:49.801Z,22.00
2017-09-21T11:44:19.123Z,37.57
2017-09-21T11:49:28.213Z,27.70
2017-09-21T11:51:57.524Z,29.10
2017-09-21T11:54:26.791Z,38.63
2017-09-21T11:56:56.799Z,31.83
2017-09-21T11:59:27.132Z,25.00
2017-09-21T12:01:57.257Z,19.20
2017-09-21T12:04:26.844Z,28.03
2017-09-21T12:06:56.218Z,22.27
2017-09-21T12:09:25.991Z,19.67
2017-09-21T12:11:55.372Z,20.90
2017-09-21T12:14:24.544Z,29.33
2017-09-21T12:16:53.911Z,20.80
2017-09-21T12:19:23.704Z,23.93
2017-09-21T12:21:53.118Z,19.00
2017-09-21T12:24:22.568Z,19.97
2017-09-21T12:26:51.812Z,21.00
2017-09-21T12:29:21.122Z,22.70
2017-09-21T12:31:50.571Z,23.93
2017-09-21T12:34:19.746Z,23.80
2017-09-21T12:36:49.638Z,22.00
2017-09-21T12:39:19.279Z,13.77
2017-09-21T12:41:48.911Z,17.40
2017-09-21T12:44:17.907Z,20.97
2017-09-21T12:46:47.310Z,20.53
2017-09-21T12:49:16.465Z,15.30
2017-09-21T12:51:46.976Z,15.27
2017-09-21T12:54:16.747Z,25.80
2017-09-21T12:56:46.069Z,13.47
2017-09-21T12:59:15.354Z,12.30
2017-09-21T13:01:44.470Z,16.20
2017-09-21T13:04:14.024Z,12.63
2017-09-21T13:06:43.363Z,20.00
2017-09-21T13:09:13.448Z,17.57
2017-09-21T13:11:43.032Z,13.20
2017-09-21T13:14:12.491Z,12.10
2017-09-21T13:16:41.854Z,17.80
2017-09-21T13:19:11.111Z,16.10
2017-09-21T13:21:40.557Z,17.73
2017-09-21T13:24:10.015Z,16.03
2017-09-21T13:26:40.644Z,19.60
2017-09-21T13:29:10.790Z,18.67
2017-09-21T13:31:40.039Z,16.40
2017-09-21T13:34:09.261Z,15.43
2017-09-21T13:36:39.708Z,14.00
2017-09-21T13:39:09.133Z,11.63
2017-09-21T13:41:38.218Z,14.20
2017-09-21T13:44:07.539Z,14.43
2017-09-21T13:46:37.349Z,22.73
2017-09-21T13:49:06.913Z,16.07
2017-09-21T13:51:37.792Z,15.53
2017-09-21T13:54:07.844Z,13.50
2017-09-21T13:56:38.258Z,12.30
2017-09-21T13:59:07.392Z,17.43
2017-09-21T14:01:37.780Z,17.90
2017-09-21T14:04:07.419Z,12.43
2017-09-21T14:06:36.886Z,14.20
2017-09-21T14:09:06.253Z,14.83
2017-09-21T14:11:35.632Z,13.50
2017-09-21T14:14:05.471Z,10.13
2017-09-21T14:16:35.188Z,11.47
2017-09-21T14:19:05.511Z,10.07
2017-09-21T14:21:35.098Z,9.97
2017-09-21T14:24:04.609Z,13.30
2017-09-21T14:26:34.251Z,13.90
2017-09-21T14:29:03.629Z,12.23
2017-09-21T14:31:33.249Z,10.90
2017-09-21T14:34:02.879Z,11.90
2017-09-21T14:36:33.168Z,11.40
2017-09-21T14:39:03.597Z,15.67
2017-09-21T14:41:34.506Z,14.10
2017-09-21T14:44:04.873Z,15.77
2017-09-21T14:46:34.572Z,16.27
2017-09-21T14:49:03.968Z,14.40
2017-09-21T14:51:33.275Z,12.80
2017-09-21T14:54:02.698Z,16.70
2017-09-21T14:56:33.203Z,17.03
2017-09-21T14:59:02.403Z,14.80
2017-09-21T15:01:31.190Z,12.57
2017-09-21T15:04:01.281Z,10.73
2017-09-21T15:06:30.654Z,15.03
2017-09-21T15:09:00.494Z,17.27
2017-09-21T15:11:30.991Z,14.80
2017-09-21T15:14:01.861Z,11.73
2017-09-21T15:16:32.315Z,14.23
2017-09-21T15:19:01.930Z,11.73
2017-09-21T15:21:31.782Z,16.03
2017-09-21T15:24:02.043Z,18.43
2017-09-21T15:26:31.485Z,18.17
2017-09-21T15:29:00.646Z,15.70
2017-09-21T15:31:29.903Z,11.87
2017-09-21T15:33:59.536Z,14.30
2017-09-21T15:36:29.307Z,11.90
2017-09-21T15:38:58.661Z,11.17
2017-09-21T15:41:28.167Z,10.87
2017-09-21T15:43:57.593Z,11.00
2017-09-21T15:46:26.922Z,13.30
2017-09-21T15:48:56.225Z,16.23
2017-09-21T15:51:25.625Z,10.47
2017-09-21T15:53:55.107Z,10.63
2017-09-21T15:56:24.639Z,13.30
2017-09-21T15:58:54.634Z,10.50
2017-09-21T16:01:23.718Z,11.33
2017-09-21T16:03:53.089Z,10.47
2017-09-21T16:06:22.352Z,10.93
2017-09-21T16:08:51.566Z,8.07
2017-09-21T16:11:20.843Z,11.43
2017-09-21T16:13:50.342Z,12.93
2017-09-21T16:16:19.448Z,11.97
2017-09-21T16:18:48.980Z,11.30
2017-09-21T16:21:18.283Z,10.27
2017-09-21T16:23:47.576Z,12.13
2017-09-21T16:26:16.974Z,8.87
2017-09-21T16:28:46.111Z,12.43
2017-09-21T16:31:15.985Z,14.33
2017-09-21T16:33:45.481Z,10.37
2017-09-21T16:36:15.170Z,8.50
2017-09-21T16:38:45.459Z,9.63
2017-09-21T16:41:15.862Z,13.80
2017-09-21T16:43:45.597Z,9.97
2017-09-21T16:46:15.967Z,12.27
2017-09-21T16:48:45.519Z,19.17
2017-09-21T16:51:14.687Z,19.00
2017-09-21T16:53:43.922Z,12.87
2017-09-21T16:56:13.816Z,11.37
2017-09-21T16:58:43.277Z,12.00
2017-09-21T17:01:13.311Z,11.30
2017-09-21T17:03:42.605Z,9.63
2017-09-21T17:06:11.958Z,11.17
2017-09-21T17:08:42.128Z,15.07
2017-09-21T17:11:11.633Z,13.60
2017-09-21T17:13:40.738Z,14.57
2017-09-21T17:16:10.463Z,11.77
2017-09-21T17:18:39.606Z,13.60
2017-09-21T17:21:08.915Z,10.73
2017-09-21T17:23:38.580Z,14.20
2017-09-21T17:26:07.879Z,8.23
2017-09-21T17:28:37.261Z,9.13
2017-09-21T17:31:06.554Z,8.83
2017-09-21T17:33:35.743Z,8.20
2017-09-21T17:36:05.716Z,9.60
2017-09-21T17:38:35.104Z,11.07
2017-09-21T17:41:04.450Z,9.70
2017-09-21T17:43:33.571Z,8.20
2017-09-21T17:46:03.389Z,12.03
2017-09-21T17:48:32.632Z,8.33
2017-09-21T17:51:02.704Z,9.03
2017-09-21T17:53:31.967Z,7.70
2017-09-21T17:56:01.293Z,18.43
2017-09-21T17:58:30.593Z,7.30
2017-09-21T18:00:59.890Z,7.43
2017-09-21T18:03:30.173Z,7.80
2017-09-21T18:05:59.417Z,7.43
2017-09-21T18:08:29.056Z,7.37
2017-09-21T18:10:58.381Z,9.47
2017-09-21T18:13:27.810Z,6.40
2017-09-21T18:15:57.294Z,7.23
2017-09-21T18:18:27.481Z,7.70
2017-09-21T18:20:56.664Z,12.80
2017-09-21T18:23:25.800Z,6.00
2017-09-21T18:25:54.967Z,5.20
2017-09-21T18:28:24.096Z,7.17
2017-09-21T18:30:53.682Z,8.23
2017-09-21T18:33:22.913Z,7.77
2017-09-21T18:35:52.212Z,5.77
2017-09-21T18:38:22.307Z,6.10
2017-09-21T18:40:51.579Z,4.90
2017-09-21T18:43:21.305Z,5.67
2017-09-21T18:45:50.608Z,5.37
2017-09-21T18:48:19.776Z,7.57
2017-09-21T18:50:49.208Z,4.97
2017-09-21T18:53:19.383Z,12.47
2017-09-21T18:55:49.416Z,7.70
2017-09-21T18:58:18.507Z,8.37
2017-09-21T19:00:47.982Z,7.70
2017-09-21T19:03:17.135Z,5.30
2017-09-21T19:05:46.936Z,6.97
2017-09-21T19:08:16.110Z,6.57
2017-09-21T19:10:46.405Z,8.37
2017-09-21T19:13:15.485Z,7.80
2017-09-21T19:15:44.870Z,6.83
2017-09-21T19:18:14.283Z,7.10
2017-09-21T19:20:43.307Z,6.90
2017-09-21T19:23:13.739Z,4.40
2017-09-21T19:25:43.854Z,5.13
2017-09-21T19:28:13.295Z,6.30
2017-09-21T19:30:42.623Z,4.57
2017-09-21T19:33:11.788Z,5.70
2017-09-21T19:35:41.126Z,7.73
2017-09-21T19:38:10.230Z,6.93
2017-09-21T19:40:39.467Z,7.20
2017-09-21T19:43:09.518Z,4.50
2017-09-21T19:45:38.885Z,5.87
2017-09-21T19:48:08.345Z,4.90
2017-09-21T19:50:37.486Z,8.63
2017-09-21T19:53:06.647Z,4.57
2017-09-21T19:55:35.918Z,6.27
2017-09-21T19:58:05.007Z,9.67
2017-09-21T20:00:34.268Z,5.60
2017-09-21T20:03:04.359Z,5.83
2017-09-21T20:05:33.811Z,5.00
2017-09-21T20:08:03.535Z,4.43
2017-09-21T20:10:32.676Z,8.00
2017-09-21T20:13:01.780Z,10.07
2017-09-21T20:15:31.497Z,5.77
2017-09-21T20:18:00.538Z,5.27
2017-09-21T20:20:29.619Z,5.57
2017-09-21T20:22:59.356Z,4.37
2017-09-21T20:25:28.932Z,8.00
2017-09-21T20:27:58.157Z,5.97
2017-09-21T20:30:27.402Z,7.13
2017-09-21T20:32:56.610Z,6.50
2017-09-21T20:35:26.482Z,6.83
2017-09-21T20:37:56.531Z,8.67
2017-09-21T20:40:26.739Z,6.20
2017-09-21T20:42:57.056Z,5.90
2017-09-21T20:45:26.301Z,6.33
2017-09-21T20:47:56.325Z,8.93
2017-09-21T20:50:25.911Z,12.00
2017-09-21T20:52:55.673Z,9.47
2017-09-21T20:55:25.060Z,4.90
2017-09-21T20:57:54.023Z,5.50
2017-09-21T21:00:23.425Z,5.77
2017-09-21T21:02:52.720Z,5.67
2017-09-21T21:05:21.842Z,5.80
2017-09-21T21:07:51.035Z,9.80
2017-09-21T21:10:21.283Z,7.63
2017-09-21T21:12:50.514Z,5.20
2017-09-21T21:15:19.161Z,7.37
2017-09-21T21:17:47.827Z,5.60
2017-09-21T21:20:16.492Z,4.67
2017-09-21T21:22:45.764Z,5.53
2017-09-21T21:25:15.160Z,4.90
2017-09-21T21:27:45.231Z,7.43
2017-09-21T21:30:14.599Z,7.17
2017-09-21T21:32:43.509Z,5.93
2017-09-21T21:35:13.579Z,5.23
2017-09-21T21:37:42.632Z,5.80
2017-09-21T21:40:12.117Z,4.90
2017-09-21T21:42:41.276Z,7.93
2017-09-21T21:45:09.936Z,7.37
2017-09-21T21:47:39.309Z,5.30
2017-09-21T21:50:09.419Z,4.90
2017-09-21T21:52:38.428Z,4.67
2017-09-21T21:55:07.774Z,6.00
2017-09-21T21:57:37.199Z,4.40
2017-09-21T22:00:05.769Z,3.97
2017-09-21T22:02:34.526Z,4.33
2017-09-21T22:05:03.632Z,5.13
2017-09-21T22:07:32.716Z,9.43
2017-09-21T22:10:01.582Z,3.93
2017-09-21T22:12:31.424Z,7.33
2017-09-21T22:15:01.395Z,3.70
2017-09-21T22:17:30.399Z,5.13
2017-09-21T22:19:59.093Z,4.07
2017-09-21T22:22:29.309Z,7.33
2017-09-21T22:24:59.485Z,5.43
2017-09-21T22:27:28.741Z,7.03
2017-09-21T22:29:58.553Z,6.30
2017-09-21T22:32:27.568Z,5.47
2017-09-21T22:34:56.648Z,6.93
2017-09-21T22:37:26.606Z,7.20
2017-09-21T22:39:55.999Z,4.00
2017-09-21T22:42:24.952Z,4.87
2017-09-21T22:44:55.268Z,5.57
2017-09-21T22:47:25.837Z,2.73
2017-09-21T22:49:55.163Z,4.50
2017-09-21T22:52:26.041Z,4.60
2017-09-21T22:54:56.174Z,9.53
2017-09-21T22:57:26.078Z,3.80
2017-09-21T22:59:55.515Z,4.67
2017-09-21T23:02:24.793Z,5.13
2017-09-21T23:04:54.798Z,3.40
2017-09-21T23:07:24.029Z,4.37
2017-09-21T23:09:53.045Z,3.43
2017-09-21T23:12:22.363Z,4.90
2017-09-21T23:14:53.640Z,4.83
2017-09-21T23:17:22.989Z,4.70
2017-09-21T23:19:52.240Z,5.13
2017-09-21T23:22:21.872Z,4.10
2017-09-21T23:24:50.982Z,5.00
2017-09-21T23:27:20.059Z,5.23
2017-09-21T23:29:49.266Z,3.30
2017-09-21T23:32:19.167Z,4.63
2017-09-21T23:34:48.163Z,5.07
2017-09-21T23:37:18.420Z,3.03
2017-09-21T23:39:47.575Z,7.17
2017-09-21T23:42:17.485Z,4.00
2017-09-21T23:44:46.665Z,4.10
2017-09-21T23:47:15.825Z,5.50
2017-09-21T23:49:45.148Z,8.30
2017-09-21T23:52:14.466Z,4.23
2017-09-21T23:54:44.785Z,4.67
2017-09-21T23:57:14.284Z,5.70
2017-09-21T23:59:43.644Z,4.37
